Time;durP1;ratioP1;P1;durP2;ratioP2;P2;SDS_P1;SDS_P2;PMS_P1;PMS_P2;Temp;Humidity;BMP_temperature;BMP_pressure;BME280_temperature;BME280_humidity;BME280_pressure;Samples;Min_cycle;Max_cycle;Signal;HPM_P1;HPM_P2
2022/05/13 00:00:03;;;;;;;;;20.00;15.00;;;;;17.40;46.03;101938.03;5071831;28;45552;-49
2022/05/13 00:02:29;;;;;;;;;19.75;15.50;;;;;17.39;46.17;101935.47;5071014;28;45428;-48
2022/05/13 00:04:54;;;;;;;;;10.25;9.25;;;;;17.36;46.19;101931.19;5070499;28;45336;-49
2022/05/13 00:07:19;;;;;;;;;6.75;4.00;;;;;17.32;46.16;101935.03;5071659;28;45379;-50
2022/05/13 00:09:57;;;;;;;;;3.25;2.50;;;;;17.26;46.26;101936.31;5071015;27;45442;-48
2022/05/13 00:12:30;;;;;;;;;1.25;1.00;;;;;17.23;46.39;101933.88;5070580;28;45437;-50
2022/05/13 00:14:56;;;;;;;;;1.00;0.25;;;;;17.21;46.57;101935.75;5073067;28;45427;-48
2022/05/13 00:17:23;;;;;;;;;1.00;1.00;;;;;17.20;46.69;101938.53;5071769;28;45391;-50
2022/05/13 00:19:50;;;;;;;;;3.00;1.75;;;;;17.20;46.73;101938.53;5070650;28;45588;-49
2022/05/13 00:22:15;;;;;;;;;0.00;0.00;;;;;17.18;46.81;101948.44;5070989;28;45315;-47
2022/05/13 00:24:40;;;;;;;;;5.00;1.00;;;;;17.14;46.77;101938.94;5073084;28;45374;-51
2022/05/13 00:27:07;;;;;;;;;3.75;2.00;;;;;17.13;46.99;101945.22;5072244;28;45383;-50
2022/05/13 00:29:33;;;;;;;;;2.25;1.00;;;;;17.11;46.82;101939.16;5068789;28;45490;-51
2022/05/13 00:31:59;;;;;;;;;1.00;1.00;;;;;17.10;47.34;101940.13;5071248;28;46296;-46
2022/05/13 00:34:24;;;;;;;;;1.25;1.00;;;;;17.05;47.29;101940.41;5069358;28;45429;-47
2022/05/13 00:36:51;;;;;;;;;1.75;1.00;;;;;17.00;47.57;101935.41;5071344;28;45587;-48
2022/05/13 00:39:19;;;;;;;;;1.75;1.00;;;;;16.97;47.61;101930.28;5071546;27;45555;-46
2022/05/13 00:41:45;;;;;;;;;1.00;1.00;;;;;16.95;47.50;101932.19;5071732;28;46337;-46
2022/05/13 00:44:11;;;;;;;;;1.50;1.00;;;;;16.93;47.59;101931.47;5071511;28;45256;-50
2022/05/13 00:46:37;;;;;;;;;1.00;1.00;;;;;16.94;47.44;101929.66;5070345;28;45401;-46
2022/05/13 00:49:06;;;;;;;;;2.00;1.00;;;;;16.91;47.08;101927.22;5074418;28;45575;-45
2022/05/13 00:51:37;;;;;;;;;2.00;1.00;;;;;16.88;47.17;101932.72;5071944;28;45331;-46
2022/05/13 00:54:05;;;;;;;;;2.75;0.75;;;;;16.90;47.02;101933.47;5072335;28;45356;-49
2022/05/13 00:56:31;;;;;;;;;1.00;1.00;;;;;16.89;47.02;101931.75;5070633;28;45327;-47
2022/05/13 00:59:01;;;;;;;;;2.00;0.00;;;;;16.84;47.06;101934.75;5070405;27;45501;-50
2022/05/13 01:01:28;;;;;;;;;0.00;0.00;;;;;16.84;46.78;101933.88;5084153;27;45453;-46
2022/05/13 01:04:02;;;;;;;;;0.00;0.00;;;;;16.83;46.71;101932.19;5071116;28;45536;-52
2022/05/13 01:06:28;;;;;;;;;2.25;0.00;;;;;16.84;46.66;101934.75;5067616;28;45271;-49
2022/05/13 01:08:56;;;;;;;;;2.00;0.00;;;;;16.85;46.68;101932.94;5070483;28;45584;-49
2022/05/13 01:11:26;;;;;;;;;0.00;0.00;;;;;16.87;46.39;101934.53;5071381;28;45333;-48
2022/05/13 01:13:58;;;;;;;;;1.00;1.00;;;;;16.86;46.61;101930.16;5072015;28;45440;-50
2022/05/13 01:16:24;;;;;;;;;4.25;1.00;;;;;16.85;46.62;101936.44;5069558;28;45230;-48
2022/05/13 01:18:49;;;;;;;;;3.00;1.00;;;;;16.87;46.96;101939.00;5070563;28;45360;-48
2022/05/13 01:21:24;;;;;;;;;1.00;0.00;;;;;16.88;46.88;101938.03;5070379;28;46045;-50
2022/05/13 01:23:51;;;;;;;;;3.50;0.00;;;;;16.86;46.75;101938.16;5069743;27;45397;-48
2022/05/13 01:26:22;;;;;;;;;1.00;0.00;;;;;16.85;46.80;101932.94;5071947;28;45432;-47
2022/05/13 01:28:51;;;;;;;;;1.75;0.75;;;;;16.80;46.96;101932.38;5068137;27;45532;-47
2022/05/13 01:31:26;;;;;;;;;0.00;0.00;;;;;16.78;46.74;101931.63;5072703;28;46070;-47
2022/05/13 01:33:52;;;;;;;;;0.00;0.00;;;;;16.74;46.91;101938.94;5061300;28;45263;-49
2022/05/13 01:36:18;;;;;;;;;0.00;0.00;;;;;16.69;46.84;101941.06;5061814;28;45341;-49
2022/05/13 01:38:44;;;;;;;;;0.00;0.00;;;;;16.63;46.79;101944.09;5061465;28;45632;-46
2022/05/13 01:41:12;;;;;;;;;1.25;1.00;;;;;16.59;46.77;101947.91;5061472;28;45933;-46
2022/05/13 01:43:40;;;;;;;;;1.25;1.00;;;;;16.59;47.27;101939.91;5060166;28;45331;-47
2022/05/13 01:46:06;;;;;;;;;2.00;1.00;;;;;16.58;47.28;101946.19;5061782;28;45248;-51
2022/05/13 01:48:32;;;;;;;;;2.00;1.00;;;;;16.56;47.21;101940.13;5061158;28;45556;-50
2022/05/13 01:50:57;;;;;;;;;1.00;1.00;;;;;16.53;47.10;101941.19;5061538;28;46064;-49
2022/05/13 01:53:23;;;;;;;;;2.50;0.25;;;;;16.54;47.04;101942.03;5061180;28;45227;-50
2022/05/13 01:55:49;;;;;;;;;1.50;0.75;;;;;16.49;46.85;101937.00;5061361;28;45392;-48
2022/05/13 01:58:20;;;;;;;;;2.00;0.75;;;;;16.44;47.16;101934.66;5061454;28;45278;-48
2022/05/13 02:00:48;;;;;;;;;1.00;1.00;;;;;16.38;47.28;101937.72;5061160;28;46242;-49
2022/05/13 02:05:58;;;;;;;;;4.25;3.25;;;;;16.38;47.17;101934.22;5061194;28;45339;-46
2022/05/13 02:08:25;;;;;;;;;11.50;9.75;;;;;16.35;47.20;101937.03;5061345;28;45323;-46
2022/05/13 02:10:51;;;;;;;;;14.25;13.25;;;;;16.31;47.26;101930.22;5060881;28;45304;-50
2022/05/13 02:13:17;;;;;;;;;24.25;22.00;;;;;16.26;47.32;101938.50;5061075;28;45346;-48
2022/05/13 02:15:43;;;;;;;;;29.75;24.25;;;;;16.26;47.37;101937.63;5061087;28;45369;-50
2022/05/13 02:18:09;;;;;;;;;29.25;26.25;;;;;16.23;47.48;101932.53;5060930;28;45381;-49
2022/05/13 02:20:36;;;;;;;;;40.50;32.50;;;;;16.22;47.26;101930.81;5060837;28;45406;-52
2022/05/13 02:23:02;;;;;;;;;43.00;34.25;;;;;16.19;47.49;101935.41;5060830;28;45367;-50
2022/05/13 02:25:29;;;;;;;;;33.50;29.25;;;;;16.15;47.28;101935.69;5060888;28;45473;-49
2022/05/13 02:27:56;;;;;;;;;31.75;29.00;;;;;16.13;47.48;101945.56;5061000;28;45391;-50
2022/05/13 02:30:22;;;;;;;;;31.25;26.50;;;;;16.14;47.43;101934.81;5069303;28;45365;-51
2022/05/13 02:32:47;;;;;;;;;33.25;26.75;;;;;16.20;47.54;101944.22;5060418;28;45452;-50
2022/05/13 02:35:13;;;;;;;;;25.00;18.00;;;;;16.20;47.32;101936.25;5060948;28;45300;-50
2022/05/13 02:37:39;;;;;;;;;15.50;15.50;;;;;16.17;47.23;101937.28;5060984;28;45539;-48
2022/05/13 02:40:04;;;;;;;;;14.75;10.75;;;;;16.17;47.48;101947.06;5060544;28;45968;-46
2022/05/13 02:42:30;;;;;;;;;9.75;6.00;;;;;16.15;47.51;101935.69;5060525;28;45239;-46
2022/05/13 02:44:55;;;;;;;;;7.75;7.00;;;;;16.13;47.52;101943.75;5060955;28;45422;-50
2022/05/13 02:47:21;;;;;;;;;8.00;5.00;;;;;16.13;47.31;101940.25;5059493;28;45224;-46
2022/05/13 02:49:46;;;;;;;;;6.50;3.50;;;;;16.16;47.49;101940.03;5060279;28;45292;-46
2022/05/13 02:52:12;;;;;;;;;6.00;4.00;;;;;16.14;47.47;101945.47;5060468;28;45211;-47
2022/05/13 02:54:38;;;;;;;;;5.00;3.00;;;;;16.11;47.60;101937.66;5060911;28;45193;-48
2022/05/13 02:57:04;;;;;;;;;1.75;1.00;;;;;16.11;47.53;101942.97;5064136;28;45433;-47
2022/05/13 02:59:30;;;;;;;;;3.75;3.00;;;;;16.08;47.58;101935.22;5064015;28;46178;-47
2022/05/13 03:01:56;;;;;;;;;2.00;2.00;;;;;16.05;47.66;101934.56;5063948;28;45328;-51
2022/05/13 03:04:22;;;;;;;;;2.25;2.00;;;;;16.04;47.75;101940.84;5063883;28;45418;-47
2022/05/13 03:06:48;;;;;;;;;1.25;1.25;;;;;16.02;48.13;101935.59;5064069;28;45508;-46
2022/05/13 03:09:14;;;;;;;;;4.50;2.50;;;;;16.04;47.90;101930.19;5063796;28;46175;-47
2022/05/13 03:11:39;;;;;;;;;2.50;2.25;;;;;16.02;47.85;101932.06;5063695;28;45279;-46
2022/05/13 03:14:05;;;;;;;;;1.25;1.25;;;;;16.00;48.24;101934.84;5064153;28;45283;-47
2022/05/13 03:16:30;;;;;;;;;2.00;2.00;;;;;16.00;48.23;101936.66;5062767;28;45268;-48
2022/05/13 03:18:59;;;;;;;;;3.50;1.00;;;;;16.00;48.45;101926.88;5063259;28;45997;-50
2022/05/13 03:21:26;;;;;;;;;2.00;2.00;;;;;16.00;48.52;101937.50;5063381;28;45265;-49
2022/05/13 03:23:52;;;;;;;;;2.75;2.00;;;;;15.96;48.71;101932.47;5063663;28;45436;-47
2022/05/13 03:26:20;;;;;;;;;2.00;1.50;;;;;15.96;48.70;101932.47;5063741;28;45572;-47
2022/05/13 03:28:46;;;;;;;;;2.00;2.00;;;;;15.95;48.84;101933.41;5063621;28;45307;-46
2022/05/13 03:31:12;;;;;;;;;3.00;1.00;;;;;15.91;49.34;101927.44;5074310;28;45236;-48
2022/05/13 03:33:38;;;;;;;;;2.00;1.00;;;;;15.92;49.46;101934.47;5063329;28;45247;-50
2022/05/13 03:36:05;;;;;;;;;2.25;2.00;;;;;15.91;49.43;101933.63;5063648;28;45387;-46
2022/05/13 03:38:30;;;;;;;;;3.00;1.00;;;;;15.87;49.63;101937.41;5063418;28;46231;-46
2022/05/13 03:40:56;;;;;;;;;1.00;1.00;;;;;15.89;49.44;101940.00;5063456;28;45290;-47
2022/05/13 03:43:21;;;;;;;;;2.00;1.50;;;;;15.86;49.50;101934.84;5063471;28;45542;-45
2022/05/13 03:45:47;;;;;;;;;3.00;1.50;;;;;15.84;49.89;101937.59;5063584;28;45299;-47
2022/05/13 03:48:12;;;;;;;;;3.00;1.25;;;;;15.83;49.51;101935.03;5063143;28;45431;-46
2022/05/13 03:50:41;;;;;;;;;1.00;1.00;;;;;15.82;49.62;101947.47;5063256;28;45259;-45
2022/05/13 03:53:07;;;;;;;;;3.25;2.00;;;;;15.82;49.36;101947.47;5063149;28;45432;-47
2022/05/13 03:55:33;;;;;;;;;1.50;1.50;;;;;15.80;49.70;101945.84;5063354;28;45181;-47
2022/05/13 03:57:59;;;;;;;;;2.00;1.25;;;;;15.79;49.50;101952.97;5063062;28;45413;-47
2022/05/13 04:00:25;;;;;;;;;1.00;1.00;;;;;15.76;49.39;101947.84;5063134;28;45543;-47
2022/05/13 04:02:51;;;;;;;;;0.00;0.00;;;;;15.75;49.64;101940.84;5062995;28;45319;-48
2022/05/13 04:10:45;;;;;;;;;4.00;2.25;;;;;15.74;49.74;101944.44;5062918;28;45429;-47
2022/05/13 04:16:04;;;;;;;;;5.75;3.00;;;;;15.72;49.85;101941.03;5061942;28;45348;-46
2022/05/13 04:18:35;;;;;;;;;3.50;2.75;;;;;15.72;49.61;101946.34;5062894;28;45317;-48
2022/05/13 04:21:04;;;;;;;;;5.00;2.50;;;;;15.72;50.11;101943.69;5062814;28;45406;-47
2022/05/13 04:23:30;;;;;;;;;4.00;3.00;;;;;15.71;50.09;101952.59;5062856;28;45376;-51
2022/05/13 04:25:56;;;;;;;;;4.00;3.00;;;;;15.68;49.94;101942.16;5062757;28;45345;-49
2022/05/13 04:28:21;;;;;;;;;7.00;4.00;;;;;15.70;49.82;101950.88;5062626;28;45330;-47
2022/05/13 04:30:47;;;;;;;;;3.50;1.75;;;;;15.69;50.07;101953.63;5072811;28;45311;-47
2022/05/13 04:33:14;;;;;;;;;4.00;2.75;;;;;15.67;50.16;101958.19;5062534;28;45517;-47
2022/05/13 04:35:40;;;;;;;;;4.00;3.00;;;;;15.65;50.40;101960.94;5062852;28;45305;-46
2022/05/13 04:38:06;;;;;;;;;3.00;3.00;;;;;15.66;50.08;101961.81;5062477;28;45391;-49
2022/05/13 04:40:31;;;;;;;;;4.25;3.25;;;;;15.66;50.42;101964.47;5062434;28;45157;-46
2022/05/13 04:42:57;;;;;;;;;2.00;2.00;;;;;15.66;49.99;101959.16;5062446;28;45497;-49
2022/05/13 04:45:26;;;;;;;;;4.00;2.50;;;;;15.65;49.92;101965.41;5062509;28;45211;-47
2022/05/13 04:50:42;;;;;;;;;2.75;2.00;;;;;15.61;49.88;101962.91;5062352;28;45358;-48
2022/05/13 04:53:09;;;;;;;;;3.25;1.00;;;;;15.61;49.73;101965.56;5062098;28;45318;-50
2022/05/13 04:55:35;;;;;;;;;3.00;3.00;;;;;15.61;49.85;101959.41;5062313;28;45639;-51
2022/05/13 04:58:03;;;;;;;;;2.00;2.00;;;;;15.60;50.08;101968.31;5062056;28;45323;-49
2022/05/13 05:00:30;;;;;;;;;2.50;2.50;;;;;15.59;50.06;101971.91;5062174;28;45231;-51
2022/05/13 05:02:55;;;;;;;;;6.75;3.00;;;;;15.58;50.17;101975.53;5061835;28;45322;-47
2022/05/13 05:05:22;;;;;;;;;5.00;2.25;;;;;15.56;50.42;101985.34;5062467;28;45227;-46
2022/05/13 05:07:47;;;;;;;;;4.25;2.25;;;;;15.57;50.38;101979.97;5061951;28;46444;-45
2022/05/13 05:10:13;;;;;;;;;4.50;2.00;;;;;15.62;50.54;101990.34;5061998;28;45324;-45
2022/05/13 05:12:39;;;;;;;;;4.25;4.00;;;;;15.66;50.45;101978.59;5062053;28;45220;-45
2022/05/13 05:15:06;;;;;;;;;6.25;3.00;;;;;15.70;50.54;101981.91;5061942;28;45476;-45
2022/05/13 05:17:31;;;;;;;;;5.25;2.75;;;;;15.73;50.58;101985.25;5061482;28;46456;-45
2022/05/13 05:19:57;;;;;;;;;5.75;4.00;;;;;15.74;50.98;101986.09;5061718;28;45444;-45
2022/05/13 05:22:22;;;;;;;;;2.00;1.00;;;;;15.75;50.74;101986.00;5062067;28;45346;-46
2022/05/13 05:24:48;;;;;;;;;5.00;2.00;;;;;15.79;50.88;101991.97;5061778;28;45221;-46
2022/05/13 05:27:13;;;;;;;;;6.00;3.00;;;;;15.81;51.02;101993.59;5061692;28;45336;-47
2022/05/13 05:29:39;;;;;;;;;5.25;4.00;;;;;15.83;51.32;101997.00;5065716;28;45434;-49
2022/05/13 05:32:05;;;;;;;;;6.50;2.75;;;;;15.85;51.23;102002.22;5065002;28;45331;-49
2022/05/13 05:34:31;;;;;;;;;4.75;3.75;;;;;15.88;51.39;102004.72;5061593;28;45573;-49
2022/05/13 05:36:57;;;;;;;;;5.50;3.00;;;;;15.90;51.44;102010.78;5067773;28;46155;-51
2022/05/13 05:39:22;;;;;;;;;3.50;2.75;;;;;15.94;51.63;102008.78;5069934;28;45459;-49
2022/05/13 05:41:48;;;;;;;;;4.50;2.50;;;;;15.95;51.70;102007.81;5064421;28;45270;-48
2022/05/13 05:44:13;;;;;;;;;7.75;3.00;;;;;16.01;51.40;102007.44;5061558;28;45689;-49
2022/05/13 05:46:39;;;;;;;;;4.75;3.75;;;;;16.04;52.61;102008.13;5061392;28;45584;-46
2022/05/13 05:49:05;;;;;;;;;5.00;2.50;;;;;16.08;51.88;102016.75;5061075;28;45380;-50
2022/05/13 05:51:31;;;;;;;;;1.00;1.00;;;;;16.12;53.34;102011.16;5074297;28;45290;-48
2022/05/13 05:59:25;;;;;;;;;8.00;3.00;;;;;16.22;52.52;102016.75;5061214;28;45386;-48
2022/05/13 06:01:51;;;;;;;;;5.00;4.50;;;;;16.26;52.28;102025.38;5061127;28;45501;-45
2022/05/13 06:04:17;;;;;;;;;6.25;4.00;;;;;16.31;52.09;102033.94;5064284;28;45351;-47
2022/05/13 06:06:43;;;;;;;;;5.00;3.75;;;;;16.36;52.07;102032.72;5062459;28;45417;-46
2022/05/13 06:09:09;;;;;;;;;5.25;3.75;;;;;16.42;52.73;102034.94;5062535;28;45301;-45
2022/05/13 06:11:34;;;;;;;;;7.25;4.00;;;;;16.47;52.19;102047.97;5070599;28;45304;-46
2022/05/13 06:14:00;;;;;;;;;4.25;4.25;;;;;16.51;51.89;102046.84;5062252;28;45421;-47
2022/05/13 06:16:28;;;;;;;;;8.00;3.00;;;;;16.58;51.86;102048.13;5062110;28;46611;-49
2022/05/13 06:18:54;;;;;;;;;9.50;3.50;;;;;16.56;51.53;102044.72;5060046;28;45224;-47
2022/05/13 06:21:20;;;;;;;;;4.00;1.00;;;;;16.55;51.88;102048.34;5059667;28;45285;-46
2022/05/13 06:23:46;;;;;;;;;5.00;3.50;;;;;16.60;51.65;102051.56;5060965;28;45382;-47
2022/05/13 06:26:11;;;;;;;;;6.00;3.50;;;;;16.67;51.64;102049.38;5060623;28;45402;-48
2022/05/13 06:28:37;;;;;;;;;3.75;3.00;;;;;16.73;51.64;102052.50;5060815;28;45271;-47
2022/05/13 06:31:02;;;;;;;;;3.50;3.25;;;;;16.81;51.61;102045.84;5073899;28;45516;-48
2022/05/13 06:33:28;;;;;;;;;7.25;4.00;;;;;16.91;51.34;102052.31;5064431;28;45353;-49
2022/05/13 06:35:54;;;;;;;;;5.00;2.25;;;;;16.98;50.83;102062.44;5064043;28;45315;-44
2022/05/13 06:38:22;;;;;;;;;4.00;2.00;;;;;17.08;50.72;102073.34;5064614;28;45333;-45
2022/05/13 06:40:52;;;;;;;;;7.00;4.50;;;;;17.13;50.66;102057.06;5064095;28;45248;-44
2022/05/13 06:43:18;;;;;;;;;4.75;3.00;;;;;17.14;50.58;102066.75;5064399;28;45303;-45
2022/05/13 06:45:45;;;;;;;;;6.25;5.00;;;;;17.17;50.61;102070.09;5064100;28;45297;-45
2022/05/13 06:48:11;;;;;;;;;4.50;4.00;;;;;17.18;50.24;102060.28;5064017;28;45334;-45
2022/05/13 06:50:37;;;;;;;;;2.00;2.00;;;;;17.17;50.41;102059.44;5063679;28;45455;-45
2022/05/13 06:53:03;;;;;;;;;5.00;3.00;;;;;17.19;50.52;102065.50;5063959;28;45514;-45
2022/05/13 06:55:29;;;;;;;;;5.25;3.50;;;;;17.23;50.26;102069.69;5063949;28;45265;-49
2022/05/13 06:57:55;;;;;;;;;5.25;5.00;;;;;17.26;49.83;102076.59;5064248;28;45492;-45
2022/05/13 07:00:21;;;;;;;;;7.00;4.00;;;;;17.26;49.58;102074.78;5079700;27;45500;-45
2022/05/13 07:02:46;;;;;;;;;5.50;3.00;;;;;17.32;49.26;102072.69;5063849;28;45287;-45
2022/05/13 07:05:15;;;;;;;;;8.00;3.00;;;;;17.32;49.33;102067.38;5063921;28;45742;-45
2022/05/13 07:07:41;;;;;;;;;6.75;4.00;;;;;17.33;49.44;102079.72;5063883;28;45231;-45
2022/05/13 07:10:09;;;;;;;;;7.25;4.50;;;;;17.33;49.21;102077.91;5063982;28;45528;-45
2022/05/13 07:12:34;;;;;;;;;3.25;2.75;;;;;17.28;48.87;102077.34;5063956;28;45416;-45
2022/05/13 07:15:02;;;;;;;;;2.25;2.00;;;;;17.27;48.78;102081.81;5064034;28;45311;-45
2022/05/13 07:17:27;;;;;;;;;4.50;1.75;;;;;17.28;48.70;102078.19;5063490;28;45326;-45
2022/05/13 07:19:53;;;;;;;;;3.25;3.00;;;;;17.29;48.58;102079.06;5063823;28;45299;-45
2022/05/13 07:22:18;;;;;;;;;4.50;3.00;;;;;17.31;48.80;102082.50;5063879;28;45301;-45
2022/05/13 07:24:44;;;;;;;;;5.00;2.50;;;;;17.32;48.67;102081.53;5063760;28;45656;-45
2022/05/13 07:27:09;;;;;;;;;3.25;2.25;;;;;17.35;48.52;102080.47;5063608;28;45255;-46
2022/05/13 07:29:35;;;;;;;;;3.00;2.25;;;;;17.32;48.53;102078.88;5067706;28;45299;-46
2022/05/13 07:32:00;;;;;;;;;2.00;2.00;;;;;17.32;48.90;102075.34;5070479;28;45321;-46
2022/05/13 07:34:25;;;;;;;;;1.50;1.25;;;;;17.35;48.41;102080.47;5063408;28;45894;-48
2022/05/13 07:36:54;;;;;;;;;3.00;2.00;;;;;17.42;48.39;102079.09;5063711;28;45150;-45
2022/05/13 07:42:08;;;;;;;;;7.50;4.00;;;;;17.43;48.24;102088.78;5062155;28;45354;-46
2022/05/13 07:44:34;;;;;;;;;3.50;2.25;;;;;17.46;48.68;102093.94;5063300;28;46014;-47
2022/05/13 07:47:00;;;;;;;;;2.00;0.75;;;;;17.51;48.62;102090.00;5063137;28;45176;-46
2022/05/13 07:49:26;;;;;;;;;3.00;2.00;;;;;17.59;48.21;102092.16;5063149;28;45334;-45
2022/05/13 07:51:52;;;;;;;;;5.00;2.00;;;;;17.64;48.14;102090.03;5063290;28;45484;-45
2022/05/13 07:54:18;;;;;;;;;3.00;1.75;;;;;17.64;47.77;102095.38;5062900;28;45195;-45
2022/05/13 07:56:43;;;;;;;;;5.25;3.25;;;;;17.65;48.00;102099.72;5063032;28;45216;-45
2022/05/13 07:59:09;;;;;;;;;4.75;3.25;;;;;17.66;47.98;102097.91;5063233;28;45408;-48
2022/05/13 08:01:34;;;;;;;;;2.50;2.00;;;;;17.68;47.94;102098.66;5063291;28;45414;-48
2022/05/13 08:04:00;;;;;;;;;2.50;2.25;;;;;17.69;48.07;102097.69;5062835;28;45371;-48
2022/05/13 08:06:25;;;;;;;;;1.00;1.00;;;;;17.71;47.98;102094.03;5062936;28;45330;-45
2022/05/13 08:08:58;;;;;;;;;3.50;2.00;;;;;17.72;48.14;102093.06;5063230;28;45310;-48
2022/05/13 08:11:29;;;;;;;;;1.50;1.50;;;;;17.75;47.97;102086.66;5062924;28;45285;-49
2022/05/13 08:13:56;;;;;;;;;2.00;2.00;;;;;17.80;48.30;102085.41;5062841;28;46222;-50
2022/05/13 08:16:25;;;;;;;;;9.75;3.50;;;;;17.88;48.07;102086.69;5062803;28;45383;-48
2022/05/13 08:18:52;;;;;;;;;2.00;2.00;;;;;17.91;47.73;102084.66;5062688;28;45377;-50
2022/05/13 08:21:17;;;;;;;;;7.00;2.00;;;;;17.96;48.28;102087.88;5062774;28;45268;-48
2022/05/13 08:23:43;;;;;;;;;2.50;1.50;;;;;18.01;48.29;102090.19;5062686;28;45696;-46
2022/05/13 08:26:09;;;;;;;;;3.25;2.00;;;;;18.07;48.40;102087.97;5062551;28;45313;-48
2022/05/13 08:28:35;;;;;;;;;5.00;2.00;;;;;18.12;47.99;102082.31;5062792;28;45296;-49
2022/05/13 08:31:00;;;;;;;;;2.00;2.00;;;;;18.17;47.95;102090.00;5072769;28;45466;-47
2022/05/13 08:33:26;;;;;;;;;4.50;3.00;;;;;18.19;48.00;102091.63;5062366;28;45374;-49
2022/05/13 08:35:57;;;;;;;;;4.25;4.00;;;;;18.24;47.72;102084.13;5062490;28;45212;-47
2022/05/13 08:38:25;;;;;;;;;2.25;1.00;;;;;18.30;47.36;102085.50;5062588;28;45330;-49
2022/05/13 08:40:53;;;;;;;;;6.50;4.00;;;;;18.36;47.98;102085.09;5062088;28;45208;-47
2022/05/13 08:43:18;;;;;;;;;3.50;1.00;;;;;18.46;47.64;102087.94;5062108;28;45414;-49
2022/05/13 08:46:01;;;;;;;;;2.75;2.75;;;;;18.51;47.67;102086.66;5062151;28;45229;-47
2022/05/13 08:48:34;;;;;;;;;6.25;2.50;;;;;18.45;46.84;102094.25;5062272;28;45239;-49
2022/05/13 08:51:14;;;;;;;;;4.00;2.75;;;;;18.36;47.30;102093.09;5062351;28;45324;-48
2022/05/13 08:54:04;;;;;;;;;4.00;1.75;;;;;18.30;47.03;102093.50;5061480;28;45478;-47
2022/05/13 08:56:30;;;;;;;;;3.50;3.00;;;;;18.29;47.33;102087.34;5062185;28;45307;-48
2022/05/13 08:59:11;;;;;;;;;1.50;1.25;;;;;18.35;46.64;102099.41;5062304;28;45501;-49
2022/05/13 09:01:42;;;;;;;;;2.00;2.00;;;;;18.39;45.84;102092.88;5062131;28;45307;-48
2022/05/13 09:04:18;;;;;;;;;4.00;1.75;;;;;18.42;46.12;102088.19;5061925;28;45358;-45
2022/05/13 09:06:56;;;;;;;;;2.00;1.75;;;;;18.44;46.01;102088.06;5062031;28;45311;-46
2022/05/13 09:09:22;;;;;;;;;7.00;1.50;;;;;18.46;46.48;102086.13;5062008;28;45314;-49
2022/05/13 09:12:42;;;;;;;;;3.50;1.25;;;;;18.47;45.50;102086.97;5061814;28;45284;-49
2022/05/13 09:15:19;;;;;;;;;1.25;1.00;;;;;18.53;45.04;102095.41;5039451;28;45433;-49
2022/05/13 09:18:03;;;;;;;;;1.25;1.25;;;;;18.54;44.91;102090.94;5058657;28;45349;-49
2022/05/13 09:20:29;;;;;;;;;0.75;0.50;;;;;18.63;44.82;102087.59;5061996;28;45385;-51
2022/05/13 09:22:58;;;;;;;;;3.00;2.00;;;;;18.73;44.10;102088.69;5061665;28;45492;-48
2022/05/13 09:25:27;;;;;;;;;4.75;4.00;;;;;18.81;44.28;102083.66;5061674;28;45362;-47
2022/05/13 09:28:05;;;;;;;;;2.00;2.00;;;;;18.87;43.50;102093.84;5060464;28;45232;-46
2022/05/13 09:30:38;;;;;;;;;1.75;1.00;;;;;18.92;43.82;102083.72;5072092;28;45309;-50
2022/05/13 09:33:20;;;;;;;;;3.75;3.00;;;;;19.01;43.00;102089.34;5061679;28;45585;-47
2022/05/13 09:35:48;;;;;;;;;4.75;2.00;;;;;19.04;42.51;102081.97;5061469;28;45375;-49
2022/05/13 09:38:19;;;;;;;;;2.75;1.50;;;;;19.06;41.92;102089.88;5061667;28;45227;-46
2022/05/13 09:41:06;;;;;;;;;1.00;0.75;;;;;19.17;42.16;102089.91;5061438;28;45346;-48
2022/05/13 09:43:39;;;;;;;;;2.50;1.50;;;;;19.28;42.46;102073.09;5061397;28;45254;-47
2022/05/13 09:46:33;;;;;;;;;2.00;1.50;;;;;19.38;41.95;102088.31;5061556;28;45391;-46
2022/05/13 09:49:04;;;;;;;;;2.00;0.50;;;;;19.44;41.45;102069.16;5061076;28;45341;-47
2022/05/13 09:51:51;;;;;;;;;2.75;1.00;;;;;19.48;41.48;102070.63;5061463;28;45485;-49
2022/05/13 09:54:38;;;;;;;;;3.00;1.00;;;;;19.58;40.73;102078.81;5061171;28;45284;-48
2022/05/13 09:57:06;;;;;;;;;5.25;1.00;;;;;19.64;40.05;102082.84;5060868;28;45323;-50
2022/05/13 09:59:45;;;;;;;;;1.75;1.00;;;;;19.70;39.70;102072.56;5061275;28;45409;-45
2022/05/13 10:02:31;;;;;;;;;2.50;2.00;;;;;19.74;40.25;102073.16;5061453;28;45422;-47
2022/05/13 10:05:19;;;;;;;;;9.00;8.50;;;;;19.80;39.84;102070.00;5060146;28;45355;-45
2022/05/13 10:07:51;;;;;;;;;12.25;11.00;;;;;19.84;39.45;102068.81;5061000;28;45323;-49
2022/05/13 10:16:08;;;;;;;;;8.25;5.00;;;;;20.06;39.54;102062.63;5060938;28;45241;-47
2022/05/13 10:18:39;;;;;;;;;17.75;16.00;;;;;20.10;39.60;102055.22;5060564;28;46281;-50
2022/05/13 10:21:13;;;;;;;;;15.25;13.50;;;;;20.15;38.95;102064.63;5060795;28;45457;-50
2022/05/13 10:23:44;;;;;;;;;3.00;3.00;;;;;20.17;39.32;102064.47;5061033;28;45275;-48
2022/05/13 10:26:14;;;;;;;;;4.50;4.50;;;;;20.22;39.56;102067.63;5060599;28;45615;-48
2022/05/13 10:29:03;;;;;;;;;1.00;1.00;;;;;20.29;39.10;102066.16;5060636;28;46244;-46
2022/05/13 10:31:33;;;;;;;;;2.50;1.25;;;;;20.30;39.50;102057.16;5070921;28;45345;-48
2022/05/13 10:34:14;;;;;;;;;1.50;1.50;;;;;20.32;39.03;102060.59;5060436;28;45235;-47
2022/05/13 10:36:51;;;;;;;;;1.00;1.00;;;;;20.35;39.29;102053.16;5060995;28;45256;-50
2022/05/13 10:39:38;;;;;;;;;1.50;1.00;;;;;20.41;39.38;102054.50;5060770;28;45415;-47
2022/05/13 10:42:13;;;;;;;;;2.25;1.00;;;;;20.49;38.81;102056.59;5060159;28;45314;-48
2022/05/13 10:44:54;;;;;;;;;1.00;1.00;;;;;20.50;38.52;102050.28;5060660;28;45456;-44
2022/05/13 10:47:26;;;;;;;;;2.50;2.00;;;;;20.50;38.85;102052.94;5059109;28;45494;-46
2022/05/13 10:49:52;;;;;;;;;1.75;1.75;;;;;20.54;39.05;102047.25;5060309;28;45377;-44
2022/05/13 10:52:22;;;;;;;;;6.75;4.00;;;;;20.62;38.75;102051.97;5060467;28;45373;-45
2022/05/13 10:55:06;;;;;;;;;3.75;3.75;;;;;20.66;38.88;102039.19;5060543;28;45293;-47
2022/05/13 10:57:34;;;;;;;;;0.00;0.00;;;;;20.75;39.75;102035.75;5060782;28;45265;-46
2022/05/13 11:00:11;;;;;;;;;1.00;1.00;;;;;20.87;39.19;102035.59;5060583;28;45387;-47
2022/05/13 11:02:45;;;;;;;;;2.00;2.00;;;;;21.00;39.30;102031.88;5060171;28;45382;-47
2022/05/13 11:05:22;;;;;;;;;2.75;2.25;;;;;21.06;38.52;102034.91;5060216;28;45326;-45
2022/05/13 11:08:09;;;;;;;;;2.50;2.00;;;;;21.08;38.44;102037.47;5060456;28;45341;-46
2022/05/13 11:10:50;;;;;;;;;2.50;2.50;;;;;21.03;38.50;102037.88;5060066;28;46089;-48
2022/05/13 11:13:19;;;;;;;;;1.50;1.00;;;;;21.04;38.62;102039.56;5060046;28;45421;-46
2022/05/13 11:16:01;;;;;;;;;1.00;1.00;;;;;21.04;38.46;102033.34;5060756;28;45326;-45
2022/05/13 11:18:46;;;;;;;;;1.75;0.00;;;;;20.99;38.32;102032.88;5063761;28;45497;-46
2022/05/13 11:21:36;;;;;;;;;2.00;2.00;;;;;21.03;38.19;102029.81;5063486;28;46263;-50
2022/05/13 11:27:40;;;;;;;;;3.25;1.25;;;;;21.12;37.84;102022.84;5063702;28;45227;-46
2022/05/13 11:30:45;;;;;;;;;2.00;1.00;;;;;21.18;37.84;102025.03;5071770;28;45338;-46
2022/05/13 11:33:20;;;;;;;;;0.75;0.75;;;;;21.22;37.61;102026.44;5020931;28;45534;-47
2022/05/13 11:36:13;;;;;;;;;1.00;1.00;;;;;21.32;37.97;102018.50;5058120;28;45396;-48
2022/05/13 11:39:04;;;;;;;;;3.00;1.50;;;;;21.42;37.78;102027.50;5061998;28;45285;-46
2022/05/13 11:41:48;;;;;;;;;1.50;1.00;;;;;21.49;38.07;102025.13;5063376;28;45397;-47
2022/05/13 11:44:18;;;;;;;;;4.25;2.00;;;;;21.53;37.71;102027.41;5050335;28;45360;-47
2022/05/13 11:47:02;;;;;;;;;3.00;2.00;;;;;21.52;37.33;102025.72;5063123;28;45282;-47
2022/05/13 11:49:34;;;;;;;;;3.75;2.00;;;;;21.56;37.93;102024.47;5063030;28;45173;-48
2022/05/13 11:52:12;;;;;;;;;3.25;2.00;;;;;21.65;37.93;102009.44;5062951;28;45473;-49
2022/05/13 11:54:40;;;;;;;;;4.00;1.75;;;;;21.72;37.72;102015.97;5062442;28;45279;-47
2022/05/13 11:57:21;;;;;;;;;9.50;5.00;;;;;21.73;37.60;102015.84;5062309;28;45483;-48
2022/05/13 11:59:50;;;;;;;;;2.00;2.00;;;;;21.73;36.97;102007.81;5062751;28;45273;-48
2022/05/13 12:02:32;;;;;;;;;2.00;1.75;;;;;21.83;37.32;102010.53;5062705;28;45380;-49
2022/05/13 12:05:09;;;;;;;;;3.00;1.75;;;;;21.96;36.86;102007.63;5062651;28;45484;-47